メインページ
METAR-TAF:

METAR-TAF

空港 :

Mackinac Island Airport

Mackinac Island, ミシガン州, アメリカ合衆国

緯度: 45-51-54N, 経度: 084-38-14W, 海抜: 226m

現時点の気象観測

当レポートは17分前の16:58(UTC)に作成
南西の風 8kt、から西の間で変化する
気温 21°C
湿度 73%
気圧 1015 hPa
視程: 16.1km
晴天

METAR: KMCD 211658Z AUTO 23008KT 190V270 10SM CLR 21/16 A2997 RMK AO2 T02100158

時間: 13:15 (17:15 UTC)


TAF: 見つかりません

4,000以上の空港の気象観測と天気予報(METAR報とTAF報)

利用可能な観測所は地図上に黄色い丸と赤い丸で示す。

丸の上にカーソルを重ねると観測所名を参照できる。

次にクリックすると気象観測と天気予報を参照できる。

マップの切り替え:黒色「×」印の緑ボタンをクリックして拡大、「-」印の緑ボタンをクリックして縮小、緑色の三角印をクリックして隣りの地図に切り替え


METAR-TAF: